createdAt,value
2022-12-23T00:01:28.809Z,0.38
2022-12-23T00:03:59.495Z,0.40
2022-12-23T00:06:26.658Z,1.10
2022-12-23T00:08:58.336Z,1.27
2022-12-23T00:11:26.276Z,1.42
2022-12-23T00:14:16.515Z,1.55
2022-12-23T00:16:47.063Z,0.65
2022-12-23T00:19:13.810Z,0.20
2022-12-23T00:21:40.573Z,1.02
2022-12-23T00:24:07.304Z,0.20
2022-12-23T00:26:33.946Z,1.98
2022-12-23T00:29:00.584Z,0.38
2022-12-23T00:31:27.323Z,0.40
2022-12-23T00:33:54.382Z,0.30
2022-12-23T00:36:27.569Z,2.20
2022-12-23T00:39:13.789Z,0.88
2022-12-23T00:41:59.110Z,0.90
2022-12-23T00:44:26.206Z,0.77
2022-12-23T00:46:52.877Z,1.85
2022-12-23T00:49:39.114Z,2.30
2022-12-23T00:52:07.655Z,0.57
2022-12-23T00:54:34.390Z,0.10
2022-12-23T00:57:01.455Z,1.48
2022-12-23T00:59:28.112Z,1.20
2022-12-23T01:02:13.502Z,1.38
2022-12-23T01:04:58.869Z,3.05
2022-12-23T01:07:25.829Z,0.10
2022-12-23T01:09:52.493Z,0.20
2022-12-23T01:12:19.274Z,0.43
2022-12-23T01:14:45.941Z,0.22
2022-12-23T01:17:12.758Z,1.33
2022-12-23T01:19:39.592Z,0.20
2022-12-23T01:22:06.331Z,1.27
2022-12-23T01:24:33.528Z,0.22
2022-12-23T01:27:00.732Z,0.60
2022-12-23T01:29:27.684Z,0.35
2022-12-23T01:31:54.412Z,0.73
2022-12-23T01:34:21.175Z,0.65
2022-12-23T01:36:47.812Z,0.82
2022-12-23T01:39:14.452Z,0.30
2022-12-23T01:42:00.103Z,0.63
2022-12-23T01:44:52.400Z,0.68
2022-12-23T01:47:41.204Z,0.25
2022-12-23T01:50:14.638Z,0.20
2022-12-23T01:53:04.614Z,0.30
2022-12-23T01:55:37.589Z,0.40
2022-12-23T01:58:11.601Z,0.32
2022-12-23T02:00:57.831Z,1.55
2022-12-23T02:03:42.921Z,0.13
2022-12-23T02:06:41.998Z,0.50
2022-12-23T02:09:17.190Z,0.20
2022-12-23T02:12:14.712Z,1.65
2022-12-23T02:15:06.998Z,0.70
2022-12-23T02:18:01.415Z,0.08
2022-12-23T02:20:56.176Z,0.90
2022-12-23T02:23:52.356Z,0.30
2022-12-23T02:27:02.162Z,0.13
2022-12-23T02:29:48.851Z,0.17
2022-12-23T02:32:20.468Z,0.20
2022-12-23T02:35:12.738Z,0.73
2022-12-23T02:38:01.072Z,0.90
2022-12-23T02:40:42.750Z,0.05
2022-12-23T02:43:26.660Z,0.15
2022-12-23T02:46:07.660Z,0.10
2022-12-23T02:48:45.062Z,1.20
2022-12-23T02:51:14.628Z,0.20
2022-12-23T02:53:53.823Z,0.68
2022-12-23T02:56:22.688Z,1.05
2022-12-23T02:59:13.963Z,0.10
2022-12-23T03:01:41.417Z,0.22
2022-12-23T03:04:08.956Z,0.40
2022-12-23T03:06:42.350Z,0.30
2022-12-23T03:09:09.230Z,0.30
2022-12-23T03:12:03.935Z,0.30
2022-12-23T03:14:54.264Z,0.40
2022-12-23T03:17:39.814Z,1.02
2022-12-23T03:20:18.140Z,1.30
2022-12-23T03:22:58.875Z,1.20
2022-12-23T03:25:48.425Z,1.05
2022-12-23T03:28:25.476Z,0.70
2022-12-23T03:30:55.018Z,1.25
2022-12-23T03:33:29.020Z,3.40
2022-12-23T03:36:05.662Z,1.73
2022-12-23T03:38:33.907Z,3.72
2022-12-23T03:41:05.096Z,5.75
2022-12-23T03:43:48.352Z,4.28
2022-12-23T03:46:20.075Z,6.63
2022-12-23T03:48:50.636Z,7.57
2022-12-23T03:51:20.361Z,5.10
2022-12-23T03:53:51.641Z,5.95
2022-12-23T03:56:27.324Z,3.80
2022-12-23T03:58:58.613Z,3.60
2022-12-23T04:01:46.525Z,2.03
2022-12-23T04:04:25.741Z,1.52
2022-12-23T04:07:00.419Z,1.65
2022-12-23T04:11:55.316Z,4.15
2022-12-23T04:14:22.714Z,3.92
2022-12-23T04:16:55.288Z,5.20
2022-12-23T04:19:22.048Z,4.63
2022-12-23T04:21:48.715Z,4.88
2022-12-23T04:24:15.347Z,4.82
2022-12-23T04:26:42.036Z,3.83
2022-12-23T04:29:08.666Z,4.20
2022-12-23T04:31:35.369Z,4.38
2022-12-23T04:34:02.036Z,5.50
2022-12-23T04:36:28.822Z,4.00
2022-12-23T04:38:55.512Z,10.10
2022-12-23T04:41:22.664Z,5.82
2022-12-23T04:43:53.105Z,5.32
2022-12-23T04:46:20.344Z,11.60
2022-12-23T04:48:46.972Z,11.98
2022-12-23T04:51:13.631Z,13.65
2022-12-23T04:53:40.343Z,9.95
2022-12-23T04:56:07.058Z,8.82
2022-12-23T04:58:33.864Z,10.27
2022-12-23T05:01:11.255Z,7.22
2022-12-23T05:03:38.725Z,6.43
2022-12-23T05:06:05.760Z,4.63
2022-12-23T05:08:32.654Z,6.07
2022-12-23T05:10:59.376Z,3.88
2022-12-23T05:13:26.395Z,6.07
2022-12-23T05:15:54.189Z,6.68
2022-12-23T05:18:21.716Z,5.55
2022-12-23T05:20:49.477Z,5.22
2022-12-23T05:23:16.146Z,6.03
2022-12-23T05:25:42.825Z,5.88
2022-12-23T05:28:09.563Z,6.15
2022-12-23T05:30:36.435Z,7.93
2022-12-23T05:33:03.091Z,8.45
2022-12-23T05:35:29.809Z,6.28
2022-12-23T05:37:57.640Z,7.97
2022-12-23T05:40:28.096Z,7.22
2022-12-23T05:42:56.555Z,6.95
2022-12-23T05:45:23.444Z,5.93
2022-12-23T05:47:50.089Z,5.03
2022-12-23T05:50:16.790Z,5.80
2022-12-23T05:52:43.712Z,5.43
2022-12-23T05:55:10.914Z,6.50
2022-12-23T05:57:37.511Z,6.25
2022-12-23T06:00:04.948Z,6.43
2022-12-23T06:02:31.794Z,7.72
2022-12-23T06:04:58.645Z,10.82
2022-12-23T06:07:25.290Z,9.35
2022-12-23T06:09:51.987Z,6.82
2022-12-23T06:12:18.666Z,9.25
2022-12-23T06:14:45.361Z,7.70
2022-12-23T06:17:12.007Z,8.77
2022-12-23T06:19:38.675Z,11.07
2022-12-23T06:22:05.353Z,8.23
2022-12-23T06:24:31.980Z,13.30
2022-12-23T06:26:58.687Z,9.88
2022-12-23T06:29:25.752Z,6.38
2022-12-23T06:31:52.652Z,7.47
2022-12-23T06:34:19.333Z,3.88
2022-12-23T06:36:46.002Z,3.65
2022-12-23T06:39:12.809Z,4.47
2022-12-23T06:41:39.500Z,4.20
2022-12-23T06:44:06.522Z,4.45
2022-12-23T06:46:33.407Z,4.10
2022-12-23T06:49:00.064Z,6.40
2022-12-23T06:51:26.819Z,4.72
2022-12-23T06:53:53.512Z,2.65
2022-12-23T06:56:20.370Z,3.67
2022-12-23T06:58:47.025Z,3.05
2022-12-23T07:01:13.707Z,2.63
2022-12-23T07:03:40.596Z,4.45
2022-12-23T07:06:07.499Z,3.75
2022-12-23T07:08:34.170Z,2.88
2022-12-23T07:11:01.820Z,5.05
2022-12-23T07:13:28.478Z,5.22
2022-12-23T07:15:55.250Z,3.85
2022-12-23T07:18:23.176Z,2.03
2022-12-23T07:20:50.601Z,2.95
2022-12-23T07:23:17.276Z,1.33
2022-12-23T07:25:44.086Z,1.65
2022-12-23T07:28:11.743Z,1.77
2022-12-23T07:30:38.430Z,4.28
2022-12-23T07:33:05.155Z,3.50
2022-12-23T07:35:31.859Z,1.55
2022-12-23T07:37:58.478Z,1.85
2022-12-23T07:40:25.636Z,2.10
2022-12-23T07:42:59.108Z,2.30
2022-12-23T07:45:27.464Z,1.90
2022-12-23T07:47:55.989Z,2.75
2022-12-23T07:50:23.322Z,3.60
2022-12-23T07:52:49.983Z,2.92
2022-12-23T07:55:16.748Z,3.22
2022-12-23T07:57:43.421Z,4.32
2022-12-23T08:00:12.126Z,2.53
2022-12-23T08:02:39.034Z,1.90
2022-12-23T08:05:06.919Z,2.80
2022-12-23T08:07:33.603Z,2.55
2022-12-23T08:10:00.446Z,1.63
2022-12-23T08:12:27.427Z,3.25
2022-12-23T08:14:54.240Z,1.70
2022-12-23T08:17:21.480Z,2.03
2022-12-23T08:19:48.796Z,1.38
2022-12-23T08:22:15.850Z,1.40
2022-12-23T08:24:42.578Z,2.90
2022-12-23T08:27:09.371Z,1.10
2022-12-23T08:29:36.707Z,3.45
2022-12-23T08:32:03.587Z,1.85
2022-12-23T08:34:30.564Z,1.48
2022-12-23T08:36:57.361Z,1.00
2022-12-23T08:39:24.095Z,1.00
2022-12-23T08:41:51.062Z,0.43
2022-12-23T08:44:18.169Z,0.60
2022-12-23T08:46:44.919Z,0.40
2022-12-23T08:49:11.734Z,1.25
2022-12-23T08:51:38.602Z,1.08
2022-12-23T08:54:05.504Z,0.32
2022-12-23T08:56:35.195Z,1.90
2022-12-23T08:59:02.430Z,3.00
2022-12-23T09:01:31.312Z,2.25
2022-12-23T09:03:58.579Z,4.97
2022-12-23T09:06:29.825Z,0.80
2022-12-23T09:08:57.786Z,1.75
2022-12-23T09:11:26.757Z,0.90
2022-12-23T09:13:53.635Z,0.50
2022-12-23T09:16:20.905Z,0.75
2022-12-23T09:18:47.615Z,2.17
2022-12-23T09:21:19.604Z,0.75
2022-12-23T09:23:46.561Z,0.80
2022-12-23T09:26:25.006Z,4.68
2022-12-23T09:28:52.197Z,0.68
2022-12-23T09:31:19.758Z,0.73
2022-12-23T09:33:48.164Z,1.05
2022-12-23T09:36:15.161Z,0.52
2022-12-23T09:38:41.818Z,2.30
2022-12-23T09:41:48.541Z,1.15
2022-12-23T09:44:15.186Z,3.25
2022-12-23T09:46:51.992Z,1.00
2022-12-23T09:49:19.171Z,3.25
2022-12-23T09:51:46.841Z,5.78
2022-12-23T09:54:18.207Z,4.90
2022-12-23T09:57:02.635Z,5.82
2022-12-23T09:59:44.330Z,4.63
2022-12-23T10:02:31.671Z,5.65
2022-12-23T10:05:20.046Z,5.50
2022-12-23T10:07:57.578Z,3.85
2022-12-23T10:10:32.078Z,6.63
2022-12-23T10:13:00.808Z,9.18
2022-12-23T10:15:45.026Z,5.32
2022-12-23T10:18:32.472Z,2.20
2022-12-23T10:21:11.547Z,1.45
2022-12-23T10:23:39.991Z,0.60
2022-12-23T10:26:20.740Z,1.67
2022-12-23T10:28:47.489Z,1.35
2022-12-23T10:34:16.657Z,0.60
2022-12-23T10:36:59.510Z,1.33
2022-12-23T10:39:37.157Z,1.70
2022-12-23T10:42:33.117Z,1.75
2022-12-23T10:45:26.611Z,0.60
2022-12-23T10:48:23.952Z,1.42
2022-12-23T10:50:55.971Z,2.50
2022-12-23T10:53:33.672Z,0.50
2022-12-23T10:56:01.178Z,5.50
2022-12-23T10:58:27.938Z,0.50
2022-12-23T11:00:57.460Z,0.57
2022-12-23T11:03:48.917Z,0.88
2022-12-23T11:06:16.119Z,0.30
2022-12-23T11:08:42.916Z,1.13
2022-12-23T11:11:09.689Z,0.20
2022-12-23T11:13:44.584Z,0.30
2022-12-23T11:16:27.002Z,0.45
2022-12-23T11:18:54.759Z,0.77
2022-12-23T11:21:21.768Z,0.20
2022-12-23T11:23:48.679Z,0.43
2022-12-23T11:26:20.365Z,0.40
2022-12-23T11:28:50.319Z,1.52
2022-12-23T11:31:26.594Z,1.75
2022-12-23T11:33:59.795Z,0.40
2022-12-23T11:36:28.158Z,0.88
2022-12-23T11:39:33.945Z,0.63
2022-12-23T11:44:48.081Z,0.25
2022-12-23T11:47:19.891Z,0.75
2022-12-23T11:49:58.593Z,2.05
2022-12-23T11:52:30.377Z,0.50
2022-12-23T11:55:05.477Z,0.30
2022-12-23T11:57:41.479Z,0.80
2022-12-23T12:00:23.169Z,0.30
2022-12-23T12:02:52.688Z,0.60
2022-12-23T12:05:32.763Z,1.33
2022-12-23T12:08:02.727Z,2.05
2022-12-23T12:10:35.098Z,0.45
2022-12-23T12:13:04.006Z,0.32
2022-12-23T12:15:42.607Z,3.03
2022-12-23T12:18:12.672Z,0.60
2022-12-23T12:20:43.130Z,1.27
2022-12-23T12:23:46.765Z,1.30
2022-12-23T12:26:27.922Z,0.80
2022-12-23T12:28:58.579Z,0.82
2022-12-23T12:31:32.230Z,1.88
2022-12-23T12:34:20.166Z,1.27
2022-12-23T12:36:53.310Z,0.70
2022-12-23T12:39:27.244Z,0.95
2022-12-23T12:42:05.539Z,3.20
2022-12-23T12:45:03.984Z,3.33
2022-12-23T12:47:57.097Z,4.13
2022-12-23T12:50:29.382Z,1.88
2022-12-23T12:53:06.015Z,2.15
2022-12-23T12:55:35.602Z,6.53
2022-12-23T12:58:05.014Z,3.63
2022-12-23T13:00:40.490Z,2.03
2022-12-23T13:03:42.251Z,2.83
2022-12-23T13:06:30.609Z,4.10
2022-12-23T13:09:29.016Z,1.73
2022-12-23T13:12:05.862Z,4.35
2022-12-23T13:14:48.730Z,3.92
2022-12-23T13:17:40.331Z,1.50
2022-12-23T13:20:25.121Z,0.63
2022-12-23T13:22:55.693Z,1.40
2022-12-23T13:25:27.050Z,0.70
2022-12-23T13:28:26.186Z,0.70
2022-12-23T13:31:18.395Z,2.58
2022-12-23T13:33:56.984Z,1.58
2022-12-23T13:36:52.908Z,0.80
2022-12-23T13:39:45.377Z,0.40
2022-12-23T13:42:17.547Z,0.30
2022-12-23T13:44:45.267Z,0.50
2022-12-23T13:47:30.988Z,0.68
2022-12-23T13:50:23.772Z,1.15
2022-12-23T13:53:25.989Z,1.10
2022-12-23T13:56:13.999Z,1.02
2022-12-23T13:58:40.914Z,0.60
2022-12-23T14:01:08.099Z,0.38
2022-12-23T14:03:37.847Z,1.27
2022-12-23T14:06:23.406Z,0.40
2022-12-23T14:08:51.441Z,4.22
2022-12-23T14:11:28.507Z,0.40
2022-12-23T14:13:57.470Z,0.20
2022-12-23T14:16:54.208Z,0.30
2022-12-23T14:20:04.363Z,0.20
2022-12-23T14:22:45.643Z,0.40
2022-12-23T14:25:40.455Z,0.38
2022-12-23T14:28:43.229Z,0.35
2022-12-23T14:31:31.638Z,1.23
2022-12-23T14:34:25.867Z,0.55
2022-12-23T14:37:16.099Z,0.30
2022-12-23T14:39:43.308Z,0.65
2022-12-23T14:42:16.700Z,6.03
2022-12-23T14:44:50.402Z,0.28
2022-12-23T14:47:33.699Z,3.05
2022-12-23T14:50:35.776Z,2.42
2022-12-23T14:53:05.758Z,0.80
2022-12-23T14:55:33.192Z,1.13
2022-12-23T14:58:16.924Z,0.82
2022-12-23T15:00:49.680Z,1.05
2022-12-23T15:03:17.756Z,7.32
2022-12-23T15:05:44.687Z,0.52
2022-12-23T15:08:37.111Z,6.65
2022-12-23T15:11:04.683Z,0.60
2022-12-23T15:13:32.300Z,2.15
2022-12-23T15:16:01.618Z,0.30
2022-12-23T15:18:28.886Z,0.20
2022-12-23T15:21:04.835Z,1.30
2022-12-23T15:23:33.191Z,4.55
2022-12-23T15:26:00.601Z,0.57
2022-12-23T15:28:39.417Z,0.60
2022-12-23T15:31:07.203Z,1.67
2022-12-23T15:34:02.112Z,0.20
2022-12-23T15:36:31.259Z,0.40
2022-12-23T15:39:00.025Z,0.40
2022-12-23T15:41:27.545Z,0.50
2022-12-23T15:43:57.962Z,0.50
2022-12-23T15:46:29.749Z,2.08
2022-12-23T15:48:57.027Z,0.50
2022-12-23T15:54:36.625Z,0.60
2022-12-23T15:57:04.513Z,2.53
2022-12-23T15:59:38.642Z,0.45
2022-12-23T16:05:36.892Z,0.47
2022-12-23T16:08:16.358Z,0.47
2022-12-23T16:10:56.181Z,0.47
2022-12-23T16:13:23.922Z,0.35
2022-12-23T16:15:50.829Z,0.63
2022-12-23T16:18:26.033Z,0.30
2022-12-23T16:21:01.832Z,0.70
2022-12-23T16:23:31.785Z,0.40
2022-12-23T16:25:59.662Z,0.77
2022-12-23T16:28:47.302Z,0.40
2022-12-23T16:31:17.500Z,0.43
2022-12-23T16:34:10.463Z,0.13
2022-12-23T16:36:48.151Z,0.45
2022-12-23T16:39:20.157Z,0.40
2022-12-23T16:41:47.043Z,0.30
2022-12-23T16:44:13.885Z,1.38
2022-12-23T16:46:47.296Z,0.68
2022-12-23T16:49:19.621Z,0.20
2022-12-23T16:51:46.831Z,0.40
2022-12-23T16:54:16.065Z,0.50
2022-12-23T16:56:44.079Z,2.10
2022-12-23T16:59:10.710Z,1.65
2022-12-23T17:01:40.375Z,0.80
2022-12-23T17:04:07.742Z,0.68
2022-12-23T17:06:36.024Z,0.70
2022-12-23T17:09:04.434Z,0.20
2022-12-23T17:11:39.462Z,1.85
2022-12-23T17:14:11.822Z,0.68
2022-12-23T17:16:42.529Z,0.65
2022-12-23T17:19:09.495Z,1.17
2022-12-23T17:21:39.735Z,0.70
2022-12-23T17:24:16.102Z,0.30
2022-12-23T17:26:42.781Z,0.30
2022-12-23T17:29:10.326Z,0.22
2022-12-23T17:31:37.275Z,0.20
2022-12-23T17:34:03.947Z,1.23
2022-12-23T17:36:30.686Z,0.20
2022-12-23T17:38:57.674Z,0.50
2022-12-23T17:41:28.739Z,2.53
2022-12-23T17:43:55.795Z,1.00
2022-12-23T17:46:23.129Z,0.10
2022-12-23T17:48:49.979Z,3.72
2022-12-23T17:51:18.177Z,0.20
2022-12-23T17:53:46.837Z,0.40
2022-12-23T17:56:19.422Z,0.90
2022-12-23T17:58:48.471Z,1.23
2022-12-23T18:01:19.585Z,0.63
2022-12-23T18:03:46.825Z,1.83
2022-12-23T18:06:15.259Z,0.77
2022-12-23T18:08:41.981Z,0.68
2022-12-23T18:11:11.371Z,0.57
2022-12-23T18:13:38.109Z,0.43
2022-12-23T18:16:04.920Z,0.40
2022-12-23T18:18:43.796Z,0.60
2022-12-23T18:21:25.265Z,0.93
2022-12-23T18:23:54.168Z,0.50
2022-12-23T18:26:21.062Z,0.73
2022-12-23T18:28:47.790Z,0.95
2022-12-23T18:31:20.990Z,3.28
2022-12-23T18:33:48.011Z,1.15
2022-12-23T18:36:33.173Z,1.42
2022-12-23T18:39:00.156Z,1.13
2022-12-23T18:41:27.478Z,1.00
2022-12-23T18:43:54.669Z,0.88
2022-12-23T18:46:21.991Z,1.60
2022-12-23T18:48:48.881Z,0.50
2022-12-23T18:51:17.081Z,0.98
2022-12-23T18:53:43.898Z,2.35
2022-12-23T18:56:13.982Z,1.65
2022-12-23T18:58:40.694Z,0.52
2022-12-23T19:01:11.760Z,0.80
2022-12-23T19:03:38.574Z,0.77
2022-12-23T19:06:07.119Z,1.30
2022-12-23T19:08:35.449Z,1.42
2022-12-23T19:11:06.085Z,1.55
2022-12-23T19:13:33.195Z,1.17
2022-12-23T19:16:00.091Z,0.45
2022-12-23T19:18:26.818Z,1.33
2022-12-23T19:20:53.491Z,2.85
2022-12-23T19:23:40.002Z,1.95
2022-12-23T19:26:11.584Z,1.55
2022-12-23T19:28:38.612Z,0.70
2022-12-23T19:31:10.382Z,2.45
2022-12-23T19:33:41.525Z,0.90
2022-12-23T19:36:10.074Z,1.90
2022-12-23T19:38:37.147Z,0.73
2022-12-23T19:41:04.186Z,0.80
2022-12-23T19:43:30.987Z,0.55
2022-12-23T19:45:59.556Z,1.10
2022-12-23T19:48:26.744Z,0.60
2022-12-23T19:51:02.129Z,1.00
2022-12-23T19:53:29.341Z,5.53
2022-12-23T19:56:01.437Z,2.90
2022-12-23T19:58:29.301Z,1.27
2022-12-23T20:01:25.834Z,0.98
2022-12-23T20:03:54.462Z,0.75
2022-12-23T20:06:31.047Z,4.07
2022-12-23T20:09:03.193Z,3.70
2022-12-23T20:11:35.418Z,7.22
2022-12-23T20:14:02.855Z,3.20
2022-12-23T20:16:30.093Z,5.32
2022-12-23T20:18:57.109Z,2.97
2022-12-23T20:21:23.944Z,4.35
2022-12-23T20:23:50.734Z,6.75
2022-12-23T20:26:21.453Z,4.05
2022-12-23T20:28:48.289Z,4.60
2022-12-23T20:31:26.603Z,3.28
2022-12-23T20:33:55.010Z,5.60
2022-12-23T20:36:28.379Z,5.22
2022-12-23T20:38:56.102Z,6.15
2022-12-23T20:41:24.869Z,5.18
2022-12-23T20:44:31.776Z,5.43
2022-12-23T20:46:39.059Z,5.35
2022-12-23T20:49:05.777Z,5.15
2022-12-23T20:51:32.496Z,6.55
2022-12-23T20:53:59.974Z,11.60
2022-12-23T20:56:29.096Z,8.43
2022-12-23T20:58:57.562Z,7.45
2022-12-23T21:01:36.314Z,11.50
2022-12-23T21:04:05.606Z,6.97
2022-12-23T21:06:33.165Z,10.88
2022-12-23T21:09:00.537Z,5.35
2022-12-23T21:11:29.238Z,6.70
2022-12-23T21:13:59.840Z,11.68
2022-12-23T21:16:30.442Z,7.95
2022-12-23T21:18:57.521Z,8.00
2022-12-23T21:21:26.496Z,8.52
2022-12-23T21:23:55.083Z,7.05
2022-12-23T21:26:24.119Z,9.75
2022-12-23T21:28:52.429Z,6.70
2022-12-23T21:31:21.573Z,7.68
2022-12-23T21:33:49.244Z,7.78
2022-12-23T21:36:21.285Z,10.52
2022-12-23T21:38:49.273Z,8.30
2022-12-23T21:41:19.465Z,6.30
2022-12-23T21:43:49.298Z,11.00
2022-12-23T21:46:17.845Z,7.50
2022-12-23T21:48:44.621Z,7.65
2022-12-23T21:51:16.049Z,7.20
2022-12-23T21:53:44.118Z,8.10
2022-12-23T21:56:13.336Z,6.75
2022-12-23T21:58:40.839Z,8.57
2022-12-23T22:01:15.864Z,7.30
2022-12-23T22:03:43.267Z,6.15
2022-12-23T22:06:12.096Z,6.38
2022-12-23T22:08:39.182Z,8.25
2022-12-23T22:11:08.384Z,6.38
2022-12-23T22:13:35.521Z,8.13
2022-12-23T22:16:02.469Z,7.22
2022-12-23T22:18:29.446Z,6.85
2022-12-23T22:20:56.097Z,7.38
2022-12-23T22:23:22.861Z,6.05
2022-12-23T22:25:53.937Z,6.88
2022-12-23T22:28:20.697Z,8.65
2022-12-23T22:30:47.540Z,9.75
2022-12-23T22:33:16.618Z,8.00
2022-12-23T22:35:43.412Z,7.70
2022-12-23T22:38:10.143Z,4.63
2022-12-23T22:40:42.578Z,8.57
2022-12-23T22:43:09.306Z,12.27
2022-12-23T22:45:35.953Z,8.02
2022-12-23T22:48:02.607Z,9.52
2022-12-23T22:50:29.458Z,9.38
2022-12-23T22:52:56.480Z,12.27
2022-12-23T22:55:23.215Z,13.05
2022-12-23T22:57:49.850Z,7.90
2022-12-23T23:00:17.133Z,7.18
2022-12-23T23:02:43.817Z,9.63
2022-12-23T23:05:13.073Z,5.72
2022-12-23T23:07:40.213Z,7.45
2022-12-23T23:10:07.601Z,12.27
2022-12-23T23:12:34.497Z,8.70
2022-12-23T23:15:01.170Z,7.78
2022-12-23T23:17:28.702Z,8.77
2022-12-23T23:19:55.643Z,6.72
2022-12-23T23:22:23.376Z,14.20
2022-12-23T23:24:50.709Z,8.82
2022-12-23T23:27:17.375Z,10.52
2022-12-23T23:29:44.032Z,10.32
2022-12-23T23:32:10.837Z,8.25
2022-12-23T23:34:37.587Z,11.93
2022-12-23T23:37:05.080Z,8.90
2022-12-23T23:39:31.774Z,12.70
2022-12-23T23:41:58.470Z,9.45
2022-12-23T23:44:25.210Z,12.57
2022-12-23T23:46:51.906Z,5.95
2022-12-23T23:49:18.577Z,11.07
2022-12-23T23:51:45.267Z,8.98
2022-12-23T23:54:11.966Z,9.68
2022-12-23T23:56:39.591Z,7.90
2022-12-23T23:59:07.475Z,9.48
